DLH007 EDDH-EDDF
Flight info
| Callsign | DLH007 |
|---|---|
| Flight time | 0h 54m |
| Altitude | 30000 |
| Route | AMLUH2C AMLUH M852 DENIX DCT RIMET/N0446F310 T157 KOKEB/N0399F230 T157 KERAX KERAX5A |
| Aircraft | A321/M-SDE3FGHIRWY/LB1 |
Departure
| Time | 2026-05-06 15:21 |
|---|---|
| Airport | Hamburg Helmut Schmidt Airport (EDDH) |
Arrival
| Time | 2026-05-06 16:15 |
|---|---|
| Airport | Frankfurt Main Airport (EDDF) |
| Time | Latitude | Longitude | Altitude | Speed | Heading |
|---|---|---|---|---|---|
| 2026-05-06 14:55 | 53.62770 | 10.00267 | 41 ft | 0 kts | 63° |
| 2026-05-06 15:14 | 53.62765 | 10.00251 | 41 ft | 2 kts | 63° |
| 2026-05-06 15:14 | 53.62758 | 10.00229 | 41 ft | 2 kts | 63° |
| 2026-05-06 15:15 | 53.62751 | 10.00206 | 41 ft | 2 kts | 63° |
| 2026-05-06 15:15 | 53.62747 | 10.00182 | 40 ft | 2 kts | 95° |
| 2026-05-06 15:15 | 53.62754 | 10.00150 | 39 ft | 2 kts | 135° |
| 2026-05-06 15:15 | 53.62761 | 10.00141 | 39 ft | 1 kts | 152° |
| 2026-05-06 15:16 | 53.62765 | 10.00137 | 39 ft | 1 kts | 154° |
| 2026-05-06 15:16 | 53.62767 | 10.00136 | 39 ft | 0 kts | 153° |
| 2026-05-06 15:17 | 53.62749 | 10.00152 | 39 ft | 7 kts | 152° |
| 2026-05-06 15:18 | 53.62683 | 10.00209 | 42 ft | 10 kts | 154° |
| 2026-05-06 15:18 | 53.62627 | 10.00257 | 43 ft | 6 kts | 154° |
| 2026-05-06 15:18 | 53.62583 | 10.00243 | 43 ft | 7 kts | 228° |
| 2026-05-06 15:18 | 53.62573 | 10.00215 | 43 ft | 1 kts | 242° |
| 2026-05-06 15:19 | 53.62572 | 10.00211 | 43 ft | 0 kts | 242° |
| 2026-05-06 15:19 | 53.62572 | 10.00210 | 43 ft | 2 kts | 242° |
| 2026-05-06 15:19 | 53.62549 | 10.00134 | 44 ft | 7 kts | 244° |
| 2026-05-06 15:19 | 53.62530 | 10.00055 | 44 ft | 4 kts | 276° |
| 2026-05-06 15:20 | 53.62555 | 10.00013 | 44 ft | 5 kts | 333° |
| 2026-05-06 15:20 | 53.62558 | 10.00011 | 44 ft | 0 kts | 333° |
| 2026-05-06 15:20 | 53.62708 | 9.99883 | 37 ft | 56 kts | 333° |
| 2026-05-06 15:20 | 53.63257 | 9.99384 | 32 ft | 122 kts | 331° |
| 2026-05-06 15:21 | 53.64175 | 9.98605 | 114 ft | 168 kts | 334° |
| 2026-05-06 15:21 | 53.65200 | 9.97683 | 796 ft | 168 kts | 336° |
| 2026-05-06 15:21 | 53.66222 | 9.96777 | 1504 ft | 169 kts | 338° |
| 2026-05-06 15:21 | 53.67635 | 9.95557 | 2077 ft | 180 kts | 341° |
| 2026-05-06 15:22 | 53.68423 | 9.95015 | 2253 ft | 189 kts | 350° |
| 2026-05-06 15:22 | 53.69740 | 9.94760 | 2609 ft | 198 kts | 4° |
| 2026-05-06 15:22 | 53.71653 | 9.94834 | 3209 ft | 212 kts | 5° |
| 2026-05-06 15:22 | 53.72627 | 9.95005 | 3548 ft | 214 kts | 22° |
| 2026-05-06 15:23 | 53.73774 | 9.96478 | 4111 ft | 215 kts | 60° |
| 2026-05-06 15:23 | 53.74125 | 9.98938 | 4685 ft | 224 kts | 85° |
| 2026-05-06 15:23 | 53.74230 | 10.01570 | 5363 ft | 227 kts | 85° |
| 2026-05-06 15:23 | 53.74022 | 10.04221 | 6000 ft | 236 kts | 108° |
| 2026-05-06 15:24 | 53.73251 | 10.06725 | 6433 ft | 252 kts | 117° |
| 2026-05-06 15:24 | 53.72326 | 10.09380 | 6871 ft | 267 kts | 118° |
| 2026-05-06 15:24 | 53.71392 | 10.12072 | 7523 ft | 271 kts | 117° |
| 2026-05-06 15:24 | 53.70441 | 10.14855 | 8230 ft | 274 kts | 117° |
| 2026-05-06 15:25 | 53.69498 | 10.17642 | 8879 ft | 279 kts | 118° |
| 2026-05-06 15:25 | 53.68259 | 10.20159 | 9436 ft | 288 kts | 141° |
| 2026-05-06 15:25 | 53.66445 | 10.21589 | 10045 ft | 294 kts | 163° |
| 2026-05-06 15:25 | 53.63763 | 10.22772 | 10630 ft | 308 kts | 165° |
| 2026-05-06 15:26 | 53.62352 | 10.23388 | 10860 ft | 318 kts | 165° |
| 2026-05-06 15:26 | 53.60162 | 10.24356 | 11179 ft | 333 kts | 165° |
| 2026-05-06 15:26 | 53.57897 | 10.25369 | 11457 ft | 348 kts | 165° |
| 2026-05-06 15:26 | 53.55511 | 10.26448 | 11731 ft | 361 kts | 165° |
| 2026-05-06 15:27 | 53.52231 | 10.27948 | 12480 ft | 367 kts | 166° |
| 2026-05-06 15:27 | 53.50611 | 10.28690 | 12925 ft | 368 kts | 165° |
| 2026-05-06 15:27 | 53.48163 | 10.29806 | 13543 ft | 369 kts | 166° |
| 2026-05-06 15:27 | 53.45681 | 10.30941 | 14191 ft | 370 kts | 166° |
| 2026-05-06 15:28 | 53.43195 | 10.32071 | 14811 ft | 371 kts | 166° |
| 2026-05-06 15:28 | 53.40710 | 10.33194 | 15354 ft | 373 kts | 166° |
| 2026-05-06 15:28 | 53.38232 | 10.34308 | 15950 ft | 374 kts | 166° |
| 2026-05-06 15:28 | 53.35703 | 10.35441 | 16515 ft | 376 kts | 167° |
| 2026-05-06 15:29 | 53.33189 | 10.36571 | 17004 ft | 379 kts | 166° |
| 2026-05-06 15:29 | 53.30642 | 10.37715 | 17512 ft | 381 kts | 166° |
| 2026-05-06 15:29 | 53.28072 | 10.38864 | 18016 ft | 383 kts | 167° |
| 2026-05-06 15:29 | 53.24633 | 10.40407 | 18668 ft | 386 kts | 167° |
| 2026-05-06 15:30 | 53.22032 | 10.41568 | 19128 ft | 389 kts | 166° |
| 2026-05-06 15:30 | 53.20297 | 10.42342 | 19419 ft | 391 kts | 166° |
| 2026-05-06 15:30 | 53.16779 | 10.43909 | 20003 ft | 395 kts | 167° |
| 2026-05-06 15:30 | 53.15006 | 10.44590 | 20279 ft | 396 kts | 171° |
| 2026-05-06 15:31 | 53.11333 | 10.45231 | 20847 ft | 398 kts | 179° |
| 2026-05-06 15:31 | 53.09495 | 10.45169 | 21115 ft | 399 kts | 184° |
| 2026-05-06 15:31 | 53.06703 | 10.44820 | 21526 ft | 402 kts | 185° |
| 2026-05-06 15:32 | 53.01124 | 10.44045 | 22300 ft | 407 kts | 185° |
| 2026-05-06 15:32 | 52.98288 | 10.43651 | 22670 ft | 410 kts | 185° |
| 2026-05-06 15:32 | 52.95457 | 10.43261 | 23033 ft | 413 kts | 185° |
| 2026-05-06 15:32 | 52.92592 | 10.42868 | 23384 ft | 416 kts | 185° |
| 2026-05-06 15:33 | 52.89694 | 10.42472 | 23740 ft | 418 kts | 185° |
| 2026-05-06 15:33 | 52.86751 | 10.42071 | 24103 ft | 420 kts | 185° |
| 2026-05-06 15:33 | 52.83843 | 10.41673 | 24481 ft | 422 kts | 185° |
| 2026-05-06 15:33 | 52.79917 | 10.41137 | 24978 ft | 423 kts | 185° |
| 2026-05-06 15:34 | 52.77980 | 10.40873 | 25202 ft | 425 kts | 185° |
| 2026-05-06 15:34 | 52.75034 | 10.40472 | 25534 ft | 426 kts | 185° |
| 2026-05-06 15:34 | 52.72067 | 10.40070 | 25857 ft | 428 kts | 185° |
| 2026-05-06 15:34 | 52.69118 | 10.39672 | 26171 ft | 430 kts | 185° |
| 2026-05-06 15:35 | 52.66097 | 10.39264 | 26477 ft | 432 kts | 185° |
| 2026-05-06 15:35 | 52.62124 | 10.38730 | 26906 ft | 433 kts | 185° |
| 2026-05-06 15:35 | 52.60138 | 10.38463 | 27139 ft | 434 kts | 185° |
| 2026-05-06 15:35 | 52.57152 | 10.38063 | 27560 ft | 432 kts | 185° |
| 2026-05-06 15:36 | 52.54160 | 10.37661 | 28024 ft | 429 kts | 185° |
| 2026-05-06 15:36 | 52.51191 | 10.37262 | 28398 ft | 429 kts | 185° |
| 2026-05-06 15:36 | 52.48223 | 10.36867 | 28693 ft | 429 kts | 185° |
| 2026-05-06 15:36 | 52.45200 | 10.36464 | 29000 ft | 430 kts | 185° |
| 2026-05-06 15:37 | 52.42241 | 10.36068 | 29265 ft | 431 kts | 185° |
| 2026-05-06 15:37 | 52.39252 | 10.35671 | 29516 ft | 432 kts | 185° |
| 2026-05-06 15:37 | 52.36264 | 10.35275 | 29759 ft | 433 kts | 185° |
| 2026-05-06 15:37 | 52.33254 | 10.34878 | 29786 ft | 433 kts | 185° |
| 2026-05-06 15:38 | 52.27259 | 10.34085 | 29790 ft | 432 kts | 186° |
| 2026-05-06 15:38 | 52.21265 | 10.33290 | 29790 ft | 432 kts | 186° |
| 2026-05-06 15:39 | 52.15302 | 10.32503 | 29780 ft | 433 kts | 186° |
| 2026-05-06 15:39 | 52.09296 | 10.31715 | 29782 ft | 433 kts | 186° |
| 2026-05-06 15:40 | 52.03306 | 10.30935 | 29774 ft | 432 kts | 186° |
| 2026-05-06 15:40 | 51.97296 | 10.30147 | 29778 ft | 433 kts | 186° |
| 2026-05-06 15:41 | 51.91325 | 10.29371 | 29773 ft | 431 kts | 187° |
| 2026-05-06 15:41 | 51.85315 | 10.28588 | 29762 ft | 431 kts | 187° |
| 2026-05-06 15:42 | 51.79372 | 10.27817 | 29769 ft | 431 kts | 187° |
| 2026-05-06 15:42 | 51.73415 | 10.27042 | 29759 ft | 430 kts | 187° |
| 2026-05-06 15:43 | 51.67449 | 10.26272 | 29763 ft | 430 kts | 187° |
| 2026-05-06 15:43 | 51.61496 | 10.25507 | 29760 ft | 429 kts | 187° |
| 2026-05-06 15:44 | 51.55560 | 10.24746 | 29770 ft | 428 kts | 187° |
| 2026-05-06 15:44 | 51.49620 | 10.23986 | 29762 ft | 427 kts | 187° |
| 2026-05-06 15:45 | 51.43723 | 10.23234 | 29769 ft | 425 kts | 187° |
| 2026-05-06 15:45 | 51.37839 | 10.22483 | 29760 ft | 424 kts | 187° |
| 2026-05-06 15:46 | 51.31965 | 10.21897 | 29761 ft | 425 kts | 184° |
| 2026-05-06 15:46 | 51.26042 | 10.21782 | 29766 ft | 424 kts | 184° |
| 2026-05-06 15:47 | 51.20170 | 10.21648 | 29770 ft | 424 kts | 184° |
| 2026-05-06 15:47 | 51.14290 | 10.21527 | 29763 ft | 422 kts | 184° |
| 2026-05-06 15:48 | 51.08363 | 10.21415 | 29826 ft | 426 kts | 184° |
| 2026-05-06 15:48 | 51.05425 | 10.21364 | 30256 ft | 423 kts | 184° |
| 2026-05-06 15:48 | 51.02489 | 10.21315 | 30696 ft | 418 kts | 184° |
| 2026-05-06 15:49 | 50.96729 | 10.21213 | 30756 ft | 414 kts | 184° |
| 2026-05-06 15:49 | 50.90964 | 10.21106 | 30754 ft | 414 kts | 184° |
| 2026-05-06 15:50 | 50.85217 | 10.20503 | 30747 ft | 409 kts | 196° |
| 2026-05-06 15:50 | 50.82599 | 10.18921 | 30762 ft | 406 kts | 208° |
| 2026-05-06 15:50 | 50.80235 | 10.16454 | 30765 ft | 406 kts | 218° |
| 2026-05-06 15:51 | 50.76414 | 10.09919 | 30763 ft | 408 kts | 234° |
| 2026-05-06 15:51 | 50.73710 | 10.02022 | 30769 ft | 410 kts | 240° |
| 2026-05-06 15:52 | 50.71136 | 9.94001 | 30765 ft | 411 kts | 240° |
| 2026-05-06 15:52 | 50.68556 | 9.85960 | 30764 ft | 411 kts | 241° |
| 2026-05-06 15:53 | 50.65974 | 9.77949 | 30765 ft | 412 kts | 240° |
| 2026-05-06 15:53 | 50.61970 | 9.69659 | 30762 ft | 408 kts | 223° |
| 2026-05-06 15:54 | 50.58205 | 9.65228 | 30760 ft | 408 kts | 211° |
| 2026-05-06 15:54 | 50.53063 | 9.61402 | 30542 ft | 409 kts | 209° |
| 2026-05-06 15:55 | 50.50712 | 9.58944 | 30265 ft | 408 kts | 218° |
| 2026-05-06 15:55 | 50.48672 | 9.55898 | 29987 ft | 407 kts | 227° |
| 2026-05-06 15:55 | 50.46991 | 9.52322 | 29708 ft | 408 kts | 237° |
| 2026-05-06 15:55 | 50.45728 | 9.48318 | 29427 ft | 412 kts | 246° |
| 2026-05-06 15:56 | 50.44822 | 9.44007 | 29035 ft | 415 kts | 250° |
| 2026-05-06 15:56 | 50.43991 | 9.39684 | 28513 ft | 417 kts | 251° |
| 2026-05-06 15:56 | 50.43167 | 9.35319 | 27866 ft | 418 kts | 251° |
| 2026-05-06 15:56 | 50.42347 | 9.30984 | 27151 ft | 418 kts | 251° |
| 2026-05-06 15:57 | 50.41512 | 9.26603 | 26419 ft | 417 kts | 250° |
| 2026-05-06 15:57 | 50.40596 | 9.22354 | 25967 ft | 409 kts | 248° |
| 2026-05-06 15:57 | 50.39649 | 9.18254 | 25564 ft | 401 kts | 248° |
| 2026-05-06 15:57 | 50.38702 | 9.14161 | 25164 ft | 393 kts | 248° |
| 2026-05-06 15:58 | 50.37781 | 9.10185 | 24686 ft | 387 kts | 248° |
| 2026-05-06 15:58 | 50.36869 | 9.06255 | 24217 ft | 378 kts | 248° |
| 2026-05-06 15:58 | 50.35984 | 9.02450 | 23619 ft | 371 kts | 248° |
| 2026-05-06 15:58 | 50.35103 | 8.98677 | 23160 ft | 361 kts | 248° |
| 2026-05-06 15:59 | 50.34255 | 8.95051 | 22674 ft | 357 kts | 248° |
| 2026-05-06 15:59 | 50.33175 | 8.91569 | 22148 ft | 354 kts | 234° |
| 2026-05-06 15:59 | 50.31501 | 8.88753 | 21610 ft | 353 kts | 218° |
| 2026-05-06 15:59 | 50.29422 | 8.86820 | 21018 ft | 354 kts | 203° |
| 2026-05-06 16:00 | 50.27048 | 8.85902 | 20253 ft | 355 kts | 185° |
| 2026-05-06 16:00 | 50.24584 | 8.86149 | 19491 ft | 354 kts | 168° |
| 2026-05-06 16:00 | 50.22314 | 8.87514 | 18747 ft | 354 kts | 151° |
| 2026-05-06 16:00 | 50.20448 | 8.89968 | 17998 ft | 354 kts | 130° |
| 2026-05-06 16:01 | 50.19305 | 8.93336 | 17259 ft | 355 kts | 108° |
| 2026-05-06 16:01 | 50.19051 | 8.97133 | 16511 ft | 355 kts | 85° |
| 2026-05-06 16:01 | 50.19717 | 9.00775 | 15793 ft | 354 kts | 63° |
| 2026-05-06 16:01 | 50.21190 | 9.03783 | 15062 ft | 351 kts | 43° |
| 2026-05-06 16:02 | 50.22984 | 9.06325 | 14359 ft | 347 kts | 41° |
| 2026-05-06 16:02 | 50.24755 | 9.08810 | 13737 ft | 340 kts | 41° |
| 2026-05-06 16:02 | 50.26474 | 9.11283 | 13141 ft | 334 kts | 45° |
| 2026-05-06 16:02 | 50.27816 | 9.14198 | 12495 ft | 328 kts | 65° |
| 2026-05-06 16:03 | 50.28645 | 9.17466 | 11865 ft | 321 kts | 70° |
| 2026-05-06 16:03 | 50.29371 | 9.20731 | 11239 ft | 316 kts | 71° |
| 2026-05-06 16:03 | 50.30083 | 9.23948 | 10622 ft | 312 kts | 71° |
| 2026-05-06 16:03 | 50.30709 | 9.27142 | 10012 ft | 308 kts | 82° |
| 2026-05-06 16:04 | 50.30614 | 9.30396 | 9385 ft | 298 kts | 108° |
| 2026-05-06 16:04 | 50.29675 | 9.33165 | 8770 ft | 280 kts | 135° |
| 2026-05-06 16:04 | 50.28140 | 9.34860 | 8135 ft | 270 kts | 162° |
| 2026-05-06 16:04 | 50.26324 | 9.35239 | 7369 ft | 264 kts | 190° |
| 2026-05-06 16:05 | 50.24701 | 9.34217 | 6901 ft | 250 kts | 220° |
| 2026-05-06 16:05 | 50.23686 | 9.32109 | 6779 ft | 242 kts | 246° |
| 2026-05-06 16:05 | 50.23074 | 9.29648 | 6782 ft | 248 kts | 249° |
| 2026-05-06 16:05 | 50.22437 | 9.27074 | 6781 ft | 261 kts | 248° |
| 2026-05-06 16:06 | 50.21777 | 9.24415 | 6787 ft | 262 kts | 248° |
| 2026-05-06 16:06 | 50.21119 | 9.21773 | 6584 ft | 262 kts | 249° |
| 2026-05-06 16:06 | 50.20457 | 9.19111 | 6281 ft | 260 kts | 249° |
| 2026-05-06 16:06 | 50.19807 | 9.16507 | 5973 ft | 260 kts | 249° |
| 2026-05-06 16:07 | 50.19154 | 9.13887 | 5665 ft | 259 kts | 249° |
| 2026-05-06 16:07 | 50.18498 | 9.11257 | 5361 ft | 258 kts | 249° |
| 2026-05-06 16:07 | 50.17854 | 9.08682 | 5077 ft | 257 kts | 249° |
| 2026-05-06 16:07 | 50.17206 | 9.06089 | 4976 ft | 257 kts | 250° |
| 2026-05-06 16:08 | 50.16549 | 9.03462 | 4977 ft | 258 kts | 250° |
| 2026-05-06 16:08 | 50.15908 | 9.00903 | 4967 ft | 244 kts | 249° |
| 2026-05-06 16:08 | 50.15312 | 8.98530 | 4973 ft | 230 kts | 250° |
| 2026-05-06 16:08 | 50.14745 | 8.96269 | 4954 ft | 216 kts | 249° |
| 2026-05-06 16:09 | 50.14228 | 8.94116 | 4963 ft | 213 kts | 251° |
| 2026-05-06 16:09 | 50.13737 | 8.92008 | 4967 ft | 194 kts | 251° |
| 2026-05-06 16:09 | 50.13287 | 8.90090 | 5031 ft | 185 kts | 251° |
| 2026-05-06 16:09 | 50.12848 | 8.88212 | 4993 ft | 183 kts | 251° |
| 2026-05-06 16:10 | 50.12412 | 8.86350 | 4978 ft | 183 kts | 251° |
| 2026-05-06 16:10 | 50.12010 | 8.84482 | 4843 ft | 183 kts | 253° |
| 2026-05-06 16:10 | 50.11607 | 8.82627 | 4574 ft | 183 kts | 252° |
| 2026-05-06 16:10 | 50.11178 | 8.80744 | 4290 ft | 183 kts | 252° |
| 2026-05-06 16:11 | 50.10741 | 8.78891 | 4011 ft | 182 kts | 252° |
| 2026-05-06 16:11 | 50.10295 | 8.77044 | 3735 ft | 182 kts | 251° |
| 2026-05-06 16:11 | 50.09847 | 8.75204 | 3470 ft | 182 kts | 252° |
| 2026-05-06 16:11 | 50.09400 | 8.73371 | 3212 ft | 182 kts | 252° |
| 2026-05-06 16:12 | 50.08954 | 8.71538 | 2956 ft | 181 kts | 252° |
| 2026-05-06 16:12 | 50.08514 | 8.69725 | 2706 ft | 180 kts | 252° |
| 2026-05-06 16:12 | 50.08071 | 8.67897 | 2457 ft | 179 kts | 252° |
| 2026-05-06 16:12 | 50.07647 | 8.66144 | 2204 ft | 167 kts | 252° |
| 2026-05-06 16:13 | 50.07254 | 8.64517 | 1957 ft | 153 kts | 252° |
| 2026-05-06 16:13 | 50.06895 | 8.63031 | 1731 ft | 141 kts | 253° |
| 2026-05-06 16:13 | 50.06554 | 8.61608 | 1547 ft | 139 kts | 253° |
| 2026-05-06 16:13 | 50.06215 | 8.60195 | 1362 ft | 139 kts | 253° |
| 2026-05-06 16:14 | 50.05877 | 8.58796 | 1163 ft | 138 kts | 251° |
| 2026-05-06 16:14 | 50.05543 | 8.57389 | 969 ft | 138 kts | 253° |
| 2026-05-06 16:14 | 50.05212 | 8.55989 | 766 ft | 137 kts | 249° |
| 2026-05-06 16:14 | 50.04877 | 8.54615 | 583 ft | 137 kts | 252° |
| 2026-05-06 16:15 | 50.04545 | 8.53222 | 390 ft | 137 kts | 250° |
| 2026-05-06 16:15 | 50.04237 | 8.51929 | 357 ft | 110 kts | 250° |
| 2026-05-06 16:15 | 50.04030 | 8.51062 | 358 ft | 60 kts | 250° |
| 2026-05-06 16:15 | 50.03914 | 8.50584 | 347 ft | 40 kts | 246° |
| 2026-05-06 16:16 | 50.03778 | 8.50299 | 339 ft | 25 kts | 220° |
| 2026-05-06 16:16 | 50.03685 | 8.50188 | 337 ft | 10 kts | 198° |
| 2026-05-06 16:16 | 50.03627 | 8.50236 | 338 ft | 10 kts | 102° |
| 2026-05-06 16:16 | 50.03643 | 8.50344 | 341 ft | 12 kts | 70° |